Time;durP1;ratioP1;P1;durP2;ratioP2;P2;SDS_P1;SDS_P2;PMS_P1;PMS_P2;Temp;Humidity;BMP_temperature;BMP_pressure;BME280_temperature;BME280_humidity;BME280_pressure;Samples;Min_cycle;Max_cycle;Signal;HPM_P1;HPM_P2
2023/02/26 00:02:01;;;;;;;4.57;2.40;;;;;;;;;;5033223;28;20199;-72
2023/02/26 00:04:28;;;;;;;5.30;2.30;;;;;;;;;;5033083;28;20234;-71
2023/02/26 00:06:55;;;;;;;3.17;2.17;;;;;;;;;;5062147;22;20230;-72
2023/02/26 00:09:24;;;;;;;4.43;2.10;;;;;;;;;;5048291;28;20574;-71
2023/02/26 00:11:51;;;;;;;5.82;2.45;;;;;;;;;;5051218;28;20217;-71
2023/02/26 00:14:18;;;;;;;4.80;1.70;;;;;;;;;;5053556;28;20198;-72
2023/02/26 00:16:48;;;;;;;5.05;2.20;;;;;;;;;;5046784;28;20602;-71
2023/02/26 00:19:15;;;;;;;4.30;1.85;;;;;;;;;;5033005;28;20199;-72
2023/02/26 00:21:42;;;;;;;3.80;1.77;;;;;;;;;;5032820;28;20203;-71
2023/02/26 00:24:09;;;;;;;2.42;1.88;;;;;;;;;;5031001;28;20675;-72
2023/02/26 00:26:38;;;;;;;3.83;1.70;;;;;;;;;;5031872;28;20215;-72
2023/02/26 00:29:05;;;;;;;1.50;1.40;;;;;;;;;;5033295;28;20199;-71
2023/02/26 00:31:32;;;;;;;6.25;1.90;;;;;;;;;;5032605;28;20203;-71
2023/02/26 00:34:00;;;;;;;8.70;1.90;;;;;;;;;;5031537;28;20203;-71
2023/02/26 00:36:34;;;;;;;3.15;2.05;;;;;;;;;;5038299;28;20222;-71
2023/02/26 00:39:06;;;;;;;5.00;2.30;;;;;;;;;;5042446;28;20201;-70
2023/02/26 00:41:35;;;;;;;4.72;2.35;;;;;;;;;;5039337;28;20195;-72
2023/02/26 00:44:03;;;;;;;3.80;2.17;;;;;;;;;;5033121;28;20200;-71
2023/02/26 00:46:36;;;;;;;12.20;4.88;;;;;;;;;;5032237;28;20222;-72
2023/02/26 00:49:08;;;;;;;6.55;3.50;;;;;;;;;;5032336;28;20231;-70
2023/02/26 00:51:39;;;;;;;4.50;2.10;;;;;;;;;;5031087;28;20203;-70
2023/02/26 00:54:10;;;;;;;10.18;2.33;;;;;;;;;;5032969;28;20579;-72
2023/02/26 00:56:37;;;;;;;3.47;1.98;;;;;;;;;;5039957;28;20215;-71
2023/02/26 00:59:05;;;;;;;5.63;2.25;;;;;;;;;;5038119;28;20234;-71
2023/02/26 01:01:32;;;;;;;2.13;1.48;;;;;;;;;;5032067;28;20553;-70
2023/02/26 01:04:00;;;;;;;5.50;2.10;;;;;;;;;;5032021;28;20203;-70
2023/02/26 01:06:29;;;;;;;3.25;1.80;;;;;;;;;;5031679;28;20219;-70
2023/02/26 01:09:01;;;;;;;12.77;2.63;;;;;;;;;;5039579;28;20199;-71
2023/02/26 01:11:28;;;;;;;5.30;1.77;;;;;;;;;;5052039;28;20233;-71
2023/02/26 01:13:56;;;;;;;4.90;1.38;;;;;;;;;;5050318;28;20568;-71
2023/02/26 01:16:27;;;;;;;2.85;1.50;;;;;;;;;;5051601;28;20214;-69
2023/02/26 01:18:57;;;;;;;2.45;1.70;;;;;;;;;;5052131;28;20195;-71
2023/02/26 01:21:28;;;;;;;2.38;1.70;;;;;;;;;;5051820;28;20569;-71
2023/02/26 01:23:55;;;;;;;2.17;1.60;;;;;;;;;;5031722;28;20210;-71
2023/02/26 01:26:23;;;;;;;6.35;2.22;;;;;;;;;;5032011;28;20227;-71
2023/02/26 01:28:51;;;;;;;1.73;1.55;;;;;;;;;;5029839;28;20572;-71
2023/02/26 01:31:24;;;;;;;2.40;2.20;;;;;;;;;;5037063;28;20554;-71
2023/02/26 01:33:54;;;;;;;4.18;2.08;;;;;;;;;;5032168;28;20199;-72
2023/02/26 01:36:23;;;;;;;8.25;1.92;;;;;;;;;;5031919;28;20223;-71
2023/02/26 01:38:53;;;;;;;2.33;1.80;;;;;;;;;;5031835;28;20195;-71
2023/02/26 01:41:27;;;;;;;2.90;1.80;;;;;;;;;;5032038;28;20207;-70
2023/02/26 01:43:59;;;;;;;5.60;1.60;;;;;;;;;;5032143;28;20194;-70
2023/02/26 01:46:29;;;;;;;5.50;2.08;;;;;;;;;;5036007;28;20215;-71
2023/02/26 01:48:58;;;;;;;4.80;1.73;;;;;;;;;;5051769;28;20202;-71
2023/02/26 01:51:42;;;;;;;3.55;2.22;;;;;;;;;;5038060;28;20203;-70
2023/02/26 01:54:09;;;;;;;4.07;1.80;;;;;;;;;;5031390;28;20206;-70
2023/02/26 01:56:36;;;;;;;4.85;1.58;;;;;;;;;;5031398;28;20223;-72
2023/02/26 01:59:04;;;;;;;3.15;2.22;;;;;;;;;;5031414;28;20199;-71
2023/02/26 02:01:32;;;;;;;4.53;1.90;;;;;;;;;;5031978;28;20206;-70
2023/02/26 02:04:01;;;;;;;1.75;1.65;;;;;;;;;;5046474;28;20198;-72
2023/02/26 02:06:28;;;;;;;3.70;1.48;;;;;;;;;;5048024;28;20230;-71
2023/02/26 02:08:56;;;;;;;5.95;1.70;;;;;;;;;;5051798;28;20209;-70
2023/02/26 02:11:23;;;;;;;4.60;2.25;;;;;;;;;;5051143;28;20198;-70
2023/02/26 02:14:01;;;;;;;5.40;2.30;;;;;;;;;;5049623;28;20198;-70
2023/02/26 02:16:32;;;;;;;3.90;2.08;;;;;;;;;;5054355;28;20215;-71
2023/02/26 02:19:08;;;;;;;5.05;2.33;;;;;;;;;;5055273;28;20660;-71
2023/02/26 02:21:48;;;;;;;2.60;2.00;;;;;;;;;;5054762;28;20194;-71
2023/02/26 02:24:19;;;;;;;3.20;1.88;;;;;;;;;;5052874;28;20205;-71
2023/02/26 02:27:01;;;;;;;4.78;2.20;;;;;;;;;;5035339;28;20238;-71
2023/02/26 02:29:33;;;;;;;4.25;1.90;;;;;;;;;;5032491;28;20657;-71
2023/02/26 02:32:02;;;;;;;2.55;1.65;;;;;;;;;;5047592;28;20671;-71
2023/02/26 02:34:33;;;;;;;3.65;2.25;;;;;;;;;;5048355;28;20199;-71
2023/02/26 02:37:01;;;;;;;3.58;2.53;;;;;;;;;;5037627;28;20310;-71
2023/02/26 02:39:30;;;;;;;2.55;2.25;;;;;;;;;;5050823;28;20195;-70
2023/02/26 02:41:59;;;;;;;3.72;1.70;;;;;;;;;;5035026;28;20195;-71
2023/02/26 02:44:27;;;;;;;4.18;1.73;;;;;;;;;;5034864;28;20580;-70
2023/02/26 02:46:56;;;;;;;3.65;1.63;;;;;;;;;;5034444;28;20227;-71
2023/02/26 02:49:28;;;;;;;3.30;1.90;;;;;;;;;;5035170;28;20207;-70
2023/02/26 02:51:57;;;;;;;2.90;2.13;;;;;;;;;;5033962;28;20199;-70
2023/02/26 02:54:26;;;;;;;5.35;2.10;;;;;;;;;;5034602;28;20524;-70
2023/02/26 02:56:55;;;;;;;3.25;1.70;;;;;;;;;;5034265;28;20216;-71
2023/02/26 02:59:24;;;;;;;1.55;1.30;;;;;;;;;;5034556;28;20203;-72
2023/02/26 03:01:53;;;;;;;4.60;2.10;;;;;;;;;;5034747;28;20203;-71
2023/02/26 03:04:20;;;;;;;3.40;1.90;;;;;;;;;;5034688;28;20202;-71
2023/02/26 03:06:49;;;;;;;3.28;2.20;;;;;;;;;;5040919;28;20230;-71
2023/02/26 03:09:17;;;;;;;2.97;1.50;;;;;;;;;;5053583;28;20202;-71
2023/02/26 03:11:44;;;;;;;2.20;1.33;;;;;;;;;;5054315;28;20225;-71
2023/02/26 03:14:11;;;;;;;4.53;2.15;;;;;;;;;;5046405;28;20298;-71
2023/02/26 03:16:49;;;;;;;2.08;1.67;;;;;;;;;;5033940;28;20211;-70
2023/02/26 03:19:20;;;;;;;5.93;2.30;;;;;;;;;;5035565;28;20195;-71
2023/02/26 03:21:49;;;;;;;2.97;2.10;;;;;;;;;;5052192;28;20206;-71
2023/02/26 03:24:20;;;;;;;4.63;1.35;;;;;;;;;;5033698;28;20207;-71
2023/02/26 03:26:48;;;;;;;5.60;1.85;;;;;;;;;;5034138;28;20227;-71
2023/02/26 03:29:20;;;;;;;6.55;1.83;;;;;;;;;;5034083;28;20200;-70
2023/02/26 03:31:50;;;;;;;5.22;1.70;;;;;;;;;;5033565;28;20688;-69
2023/02/26 03:34:22;;;;;;;4.78;2.05;;;;;;;;;;5034260;28;20687;-72
2023/02/26 03:36:53;;;;;;;6.65;2.15;;;;;;;;;;5034297;28;20273;-71
2023/02/26 03:39:25;;;;;;;3.65;1.90;;;;;;;;;;5041377;28;20199;-71
2023/02/26 03:41:56;;;;;;;2.05;1.70;;;;;;;;;;5033567;28;20210;-71
2023/02/26 03:44:26;;;;;;;4.43;1.80;;;;;;;;;;5033323;28;20199;-71
2023/02/26 03:46:54;;;;;;;3.42;1.92;;;;;;;;;;5033836;28;20231;-70
2023/02/26 03:49:24;;;;;;;5.20;1.67;;;;;;;;;;5033649;28;20195;-71
2023/02/26 03:51:52;;;;;;;4.55;1.75;;;;;;;;;;5033787;28;20568;-71
2023/02/26 03:54:21;;;;;;;3.67;1.60;;;;;;;;;;5032739;28;20680;-71
2023/02/26 03:56:49;;;;;;;3.05;2.40;;;;;;;;;;5033742;28;20212;-70
2023/02/26 03:59:17;;;;;;;5.40;1.80;;;;;;;;;;5033344;28;20195;-70
2023/02/26 04:01:47;;;;;;;3.35;1.63;;;;;;;;;;5031677;28;20213;-71
2023/02/26 04:04:17;;;;;;;2.28;1.58;;;;;;;;;;5033246;28;20203;-70
2023/02/26 04:06:44;;;;;;;3.92;1.65;;;;;;;;;;5033536;28;20628;-71
2023/02/26 04:09:11;;;;;;;5.88;2.15;;;;;;;;;;5034546;28;20195;-71
2023/02/26 04:11:39;;;;;;;5.85;1.85;;;;;;;;;;5045007;28;20653;-69
2023/02/26 04:14:07;;;;;;;2.00;1.80;;;;;;;;;;5053052;28;20213;-71
2023/02/26 04:16:34;;;;;;;1.55;1.38;;;;;;;;;;5051428;28;20214;-71
2023/02/26 04:19:01;;;;;;;7.82;2.25;;;;;;;;;;5053421;28;20194;-71
2023/02/26 04:21:28;;;;;;;3.70;1.92;;;;;;;;;;5052938;28;20199;-70
2023/02/26 04:23:55;;;;;;;1.95;1.60;;;;;;;;;;5033014;28;20206;-71
2023/02/26 04:26:23;;;;;;;3.97;1.80;;;;;;;;;;5043106;28;20223;-70
2023/02/26 04:28:50;;;;;;;6.07;1.60;;;;;;;;;;5035930;28;20231;-70
2023/02/26 04:31:18;;;;;;;1.80;1.70;;;;;;;;;;5033177;28;20195;-70
2023/02/26 04:33:45;;;;;;;3.75;1.73;;;;;;;;;;5038546;28;20569;-70
2023/02/26 04:36:12;;;;;;;2.10;1.40;;;;;;;;;;5038192;28;20215;-71
2023/02/26 04:38:39;;;;;;;4.07;1.63;;;;;;;;;;5048189;28;20191;-70
2023/02/26 04:41:07;;;;;;;2.65;1.92;;;;;;;;;;5038652;28;20567;-69
2023/02/26 04:43:34;;;;;;;2.30;1.45;;;;;;;;;;5053111;28;20812;-70
2023/02/26 04:46:01;;;;;;;4.57;1.55;;;;;;;;;;5039145;28;20242;-70
2023/02/26 04:48:29;;;;;;;2.88;1.50;;;;;;;;;;5032881;28;20219;-71
2023/02/26 04:50:56;;;;;;;4.57;1.95;;;;;;;;;;5031568;28;20196;-71
2023/02/26 04:53:23;;;;;;;4.95;1.63;;;;;;;;;;5032443;28;20211;-71
2023/02/26 04:55:51;;;;;;;1.85;1.13;;;;;;;;;;5032573;28;20234;-71
2023/02/26 04:58:18;;;;;;;2.70;1.65;;;;;;;;;;5031715;28;20265;-71
2023/02/26 05:00:48;;;;;;;6.80;1.95;;;;;;;;;;5032813;28;20203;-71
2023/02/26 05:03:15;;;;;;;4.45;1.80;;;;;;;;;;5041666;28;20248;-71
2023/02/26 05:05:44;;;;;;;3.75;1.63;;;;;;;;;;5052123;28;20226;-71
2023/02/26 05:08:11;;;;;;;1.75;1.27;;;;;;;;;;5049902;28;20218;-71
2023/02/26 05:10:38;;;;;;;3.03;1.50;;;;;;;;;;5052324;28;20205;-71
2023/02/26 05:13:05;;;;;;;3.70;1.60;;;;;;;;;;5052150;28;20209;-70
2023/02/26 05:15:32;;;;;;;2.42;1.50;;;;;;;;;;5049990;28;20221;-71
2023/02/26 05:17:59;;;;;;;2.30;1.38;;;;;;;;;;5051963;28;20191;-71
2023/02/26 05:20:26;;;;;;;4.10;1.80;;;;;;;;;;5044974;28;20578;-71
2023/02/26 05:22:55;;;;;;;1.63;1.10;;;;;;;;;;5051790;28;20712;-71
2023/02/26 05:25:22;;;;;;;1.75;1.30;;;;;;;;;;5052272;28;20222;-70
2023/02/26 05:27:49;;;;;;;3.45;1.60;;;;;;;;;;5051647;28;20218;-71
2023/02/26 05:30:16;;;;;;;5.53;2.03;;;;;;;;;;5047795;28;20206;-70
2023/02/26 05:32:44;;;;;;;4.55;1.40;;;;;;;;;;5031802;28;20211;-70
2023/02/26 05:35:11;;;;;;;4.70;1.50;;;;;;;;;;5031794;28;20195;-70
2023/02/26 05:37:38;;;;;;;8.05;1.50;;;;;;;;;;5031136;28;20206;-70
2023/02/26 05:40:09;;;;;;;7.22;1.50;;;;;;;;;;5031609;28;20210;-71
2023/02/26 05:42:36;;;;;;;3.20;1.50;;;;;;;;;;5031863;28;20210;-69
2023/02/26 05:45:04;;;;;;;4.07;1.20;;;;;;;;;;5039610;28;20269;-71
2023/02/26 05:47:32;;;;;;;2.08;1.35;;;;;;;;;;5050359;28;20305;-71
2023/02/26 05:49:59;;;;;;;1.90;1.75;;;;;;;;;;5051616;28;20198;-71
2023/02/26 05:52:26;;;;;;;4.68;1.52;;;;;;;;;;5051391;28;20198;-71
2023/02/26 05:54:53;;;;;;;1.88;1.35;;;;;;;;;;5051697;28;20205;-70
2023/02/26 05:57:21;;;;;;;2.75;1.45;;;;;;;;;;5052042;28;20223;-70
2023/02/26 05:59:48;;;;;;;3.83;1.65;;;;;;;;;;5051715;28;20195;-71
2023/02/26 06:02:15;;;;;;;6.35;1.70;;;;;;;;;;5049242;28;20211;-70
2023/02/26 06:04:42;;;;;;;1.35;1.17;;;;;;;;;;5051578;28;20202;-71
2023/02/26 06:07:09;;;;;;;3.45;2.13;;;;;;;;;;5051223;28;20238;-70
2023/02/26 06:09:36;;;;;;;3.15;1.60;;;;;;;;;;5037352;28;20215;-71
2023/02/26 06:12:04;;;;;;;3.55;1.33;;;;;;;;;;5031349;28;20699;-70
2023/02/26 06:14:32;;;;;;;2.33;1.83;;;;;;;;;;5031949;28;20203;-71
2023/02/26 06:16:59;;;;;;;5.50;1.80;;;;;;;;;;5031404;28;20219;-71
2023/02/26 06:19:26;;;;;;;2.40;1.60;;;;;;;;;;5030651;28;20684;-70
2023/02/26 06:21:53;;;;;;;4.20;1.60;;;;;;;;;;5031410;28;20210;-71
2023/02/26 06:24:20;;;;;;;4.05;1.42;;;;;;;;;;5037891;28;20201;-70
2023/02/26 06:26:48;;;;;;;3.92;1.58;;;;;;;;;;5051494;28;20591;-70
2023/02/26 06:29:17;;;;;;;4.75;1.60;;;;;;;;;;5046990;28;20219;-70
2023/02/26 06:31:45;;;;;;;4.35;1.92;;;;;;;;;;5031484;28;20608;-70
2023/02/26 06:34:12;;;;;;;4.40;2.05;;;;;;;;;;5030886;28;20199;-70
2023/02/26 06:36:39;;;;;;;7.75;1.90;;;;;;;;;;5036923;28;20215;-70
2023/02/26 06:39:07;;;;;;;3.58;1.70;;;;;;;;;;5048515;28;20207;-70
2023/02/26 06:41:34;;;;;;;2.28;1.75;;;;;;;;;;5049118;28;20195;-70
2023/02/26 06:44:01;;;;;;;2.08;1.55;;;;;;;;;;5051441;28;20615;-69
2023/02/26 06:46:28;;;;;;;4.28;2.08;;;;;;;;;;5048511;28;20718;-71
2023/02/26 06:48:57;;;;;;;6.75;2.13;;;;;;;;;;5049355;28;20587;-71
2023/02/26 06:51:24;;;;;;;5.50;2.70;;;;;;;;;;5045678;28;20195;-71
2023/02/26 06:53:51;;;;;;;2.08;1.88;;;;;;;;;;5039622;28;20203;-71
2023/02/26 06:56:18;;;;;;;3.90;1.95;;;;;;;;;;5044396;28;20226;-70
2023/02/26 06:58:45;;;;;;;4.43;2.30;;;;;;;;;;5053897;28;20533;-70
2023/02/26 07:01:12;;;;;;;5.18;2.17;;;;;;;;;;5043227;28;20249;-70
2023/02/26 07:03:39;;;;;;;1.98;1.80;;;;;;;;;;5054393;28;20187;-70
2023/02/26 07:06:08;;;;;;;3.70;1.90;;;;;;;;;;5053576;28;20234;-70
2023/02/26 07:08:35;;;;;;;5.43;2.20;;;;;;;;;;5050011;28;20237;-70
2023/02/26 07:11:03;;;;;;;6.32;2.75;;;;;;;;;;5048672;28;20198;-70
2023/02/26 07:13:30;;;;;;;3.58;2.08;;;;;;;;;;5052505;28;20199;-70
2023/02/26 07:15:57;;;;;;;2.40;1.90;;;;;;;;;;5054630;28;20214;-70
2023/02/26 07:18:24;;;;;;;3.85;2.17;;;;;;;;;;5055413;28;20190;-70
2023/02/26 07:20:51;;;;;;;6.78;2.20;;;;;;;;;;5054758;28;20195;-70
2023/02/26 07:23:19;;;;;;;5.38;2.03;;;;;;;;;;5053050;28;20222;-70
2023/02/26 07:25:49;;;;;;;5.32;2.20;;;;;;;;;;5050777;28;20583;-70
2023/02/26 07:28:16;;;;;;;5.30;2.40;;;;;;;;;;5052837;28;20211;-70
2023/02/26 07:30:43;;;;;;;5.30;2.65;;;;;;;;;;5047005;28;20680;-70
2023/02/26 07:33:11;;;;;;;4.80;2.50;;;;;;;;;;5052528;28;20206;-70
2023/02/26 07:35:38;;;;;;;4.32;2.47;;;;;;;;;;5051852;28;20628;-71
2023/02/26 07:38:05;;;;;;;3.90;2.17;;;;;;;;;;5051674;28;20202;-70
2023/02/26 07:40:34;;;;;;;5.75;2.83;;;;;;;;;;5053910;28;20205;-70
2023/02/26 07:43:01;;;;;;;3.03;2.08;;;;;;;;;;5050402;28;20206;-70
2023/02/26 07:45:28;;;;;;;3.85;2.45;;;;;;;;;;5052631;28;20626;-71
2023/02/26 07:47:55;;;;;;;9.18;2.50;;;;;;;;;;5050216;28;20545;-70
2023/02/26 07:50:23;;;;;;;5.05;2.25;;;;;;;;;;5049443;28;20205;-70
2023/02/26 07:52:52;;;;;;;4.00;2.25;;;;;;;;;;5054263;28;20821;-70
2023/02/26 07:55:19;;;;;;;4.13;2.00;;;;;;;;;;5049933;28;20267;-70
2023/02/26 07:57:47;;;;;;;3.53;2.38;;;;;;;;;;5050125;28;20206;-70
2023/02/26 08:00:15;;;;;;;2.53;2.30;;;;;;;;;;5052508;28;20203;-70
2023/02/26 08:02:42;;;;;;;5.70;2.45;;;;;;;;;;5047268;28;20233;-71
2023/02/26 08:05:09;;;;;;;5.10;2.60;;;;;;;;;;5056786;28;20209;-70
2023/02/26 08:07:37;;;;;;;3.60;2.50;;;;;;;;;;5053308;28;20206;-70
2023/02/26 08:10:04;;;;;;;4.90;2.58;;;;;;;;;;5062633;28;20266;-71
2023/02/26 08:12:31;;;;;;;4.07;2.33;;;;;;;;;;5052922;28;20201;-70
2023/02/26 08:15:00;;;;;;;4.20;2.72;;;;;;;;;;5044802;28;20282;-70
2023/02/26 08:17:27;;;;;;;4.65;2.50;;;;;;;;;;5058361;28;20219;-70
2023/02/26 08:19:54;;;;;;;5.60;2.13;;;;;;;;;;5051560;28;20209;-71
2023/02/26 08:22:22;;;;;;;3.67;2.60;;;;;;;;;;5051673;28;20227;-70
2023/02/26 08:24:49;;;;;;;3.72;2.70;;;;;;;;;;5052766;28;20452;-70
2023/02/26 08:27:16;;;;;;;8.82;2.72;;;;;;;;;;5052526;28;20351;-70
2023/02/26 08:29:45;;;;;;;6.38;2.85;;;;;;;;;;5052635;28;20233;-70
2023/02/26 08:32:14;;;;;;;3.28;2.20;;;;;;;;;;5055219;28;20253;-70
2023/02/26 08:34:41;;;;;;;6.65;3.00;;;;;;;;;;5069509;28;20189;-71
2023/02/26 08:37:10;;;;;;;6.53;2.55;;;;;;;;;;5056641;28;20210;-71
2023/02/26 08:39:37;;;;;;;2.28;1.80;;;;;;;;;;5064354;28;20205;-71
2023/02/26 08:42:05;;;;;;;4.80;2.38;;;;;;;;;;5060784;28;20502;-71
2023/02/26 08:44:32;;;;;;;3.30;2.58;;;;;;;;;;5048421;28;20569;-71
2023/02/26 08:46:59;;;;;;;4.15;1.92;;;;;;;;;;5053217;28;20218;-71
2023/02/26 08:49:27;;;;;;;2.40;2.10;;;;;;;;;;5058723;28;20569;-71
2023/02/26 08:51:55;;;;;;;3.50;2.30;;;;;;;;;;5067553;28;20205;-72
2023/02/26 08:54:22;;;;;;;3.20;2.50;;;;;;;;;;5058649;28;20191;-71
2023/02/26 08:56:49;;;;;;;4.18;2.00;;;;;;;;;;5068863;28;20218;-73
2023/02/26 08:59:16;;;;;;;2.20;2.03;;;;;;;;;;5055168;28;20194;-71
2023/02/26 09:01:43;;;;;;;4.55;2.53;;;;;;;;;;5063176;28;20191;-71
2023/02/26 09:04:10;;;;;;;2.15;1.95;;;;;;;;;;5057156;28;20206;-71
2023/02/26 09:06:39;;;;;;;2.10;1.90;;;;;;;;;;5053193;28;20226;-71
2023/02/26 09:09:06;;;;;;;2.65;2.00;;;;;;;;;;5048589;28;20234;-71
2023/02/26 09:11:33;;;;;;;2.85;2.40;;;;;;;;;;5049893;28;20199;-70
2023/02/26 09:14:01;;;;;;;2.08;1.60;;;;;;;;;;5046675;28;20226;-70
2023/02/26 09:16:28;;;;;;;3.20;2.30;;;;;;;;;;5050444;28;20245;-71
2023/02/26 09:18:55;;;;;;;3.72;2.00;;;;;;;;;;5050025;28;20194;-71
2023/02/26 09:21:22;;;;;;;4.25;2.22;;;;;;;;;;5050087;28;20197;-71
2023/02/26 09:23:51;;;;;;;2.55;1.98;;;;;;;;;;5048648;28;20203;-71
2023/02/26 09:26:18;;;;;;;2.55;1.67;;;;;;;;;;5048748;28;20711;-70
2023/02/26 09:28:45;;;;;;;3.10;2.65;;;;;;;;;;5046615;28;20217;-71
2023/02/26 09:31:12;;;;;;;3.63;2.15;;;;;;;;;;5048863;28;20203;-71
2023/02/26 09:33:39;;;;;;;2.47;1.88;;;;;;;;;;5051462;28;20539;-71
2023/02/26 09:36:07;;;;;;;2.75;2.08;;;;;;;;;;5051666;28;20249;-71
2023/02/26 09:38:35;;;;;;;3.00;1.50;;;;;;;;;;5051480;28;20226;-70
2023/02/26 09:41:05;;;;;;;1.75;1.65;;;;;;;;;;5051804;28;20689;-71
2023/02/26 09:43:50;;;;;;;2.65;1.98;;;;;;;;;;5051851;28;20210;-71
2023/02/26 09:46:24;;;;;;;4.53;1.83;;;;;;;;;;5049427;28;20590;-70
2023/02/26 09:48:54;;;;;;;2.65;1.92;;;;;;;;;;5051681;28;20264;-71
2023/02/26 09:51:22;;;;;;;3.15;1.40;;;;;;;;;;5050762;28;20680;-70
2023/02/26 09:53:50;;;;;;;2.55;1.40;;;;;;;;;;5049965;28;20207;-70
2023/02/26 09:56:20;;;;;;;2.30;1.40;;;;;;;;;;5047056;28;20227;-73
2023/02/26 09:58:47;;;;;;;4.70;1.92;;;;;;;;;;5042311;28;20717;-70
2023/02/26 10:01:16;;;;;;;3.47;1.60;;;;;;;;;;5046408;28;20216;-71
2023/02/26 10:03:52;;;;;;;5.38;1.67;;;;;;;;;;5044298;28;20282;-71
2023/02/26 10:06:23;;;;;;;1.80;1.35;;;;;;;;;;5041127;28;20229;-71
2023/02/26 10:08:56;;;;;;;2.03;1.60;;;;;;;;;;5041800;28;20214;-71
2023/02/26 10:11:30;;;;;;;3.85;1.80;;;;;;;;;;5047259;28;20206;-71
2023/02/26 10:13:59;;;;;;;1.80;1.50;;;;;;;;;;5047844;28;20250;-72
2023/02/26 10:16:28;;;;;;;1.42;1.30;;;;;;;;;;5041817;28;20218;-73
2023/02/26 10:18:59;;;;;;;2.65;1.30;;;;;;;;;;5043085;28;20199;-72
2023/02/26 10:21:29;;;;;;;2.88;1.48;;;;;;;;;;5045927;28;20199;-72
2023/02/26 10:23:57;;;;;;;2.05;1.05;;;;;;;;;;5042734;28;20195;-71
2023/02/26 10:26:27;;;;;;;1.90;1.60;;;;;;;;;;5042047;28;20226;-71
2023/02/26 10:28:57;;;;;;;2.83;1.35;;;;;;;;;;5041283;28;20210;-71
2023/02/26 10:31:27;;;;;;;2.00;1.30;;;;;;;;;;5042081;28;20202;-71
2023/02/26 10:34:09;;;;;;;1.40;1.30;;;;;;;;;;5039831;28;20195;-71
2023/02/26 10:36:41;;;;;;;3.25;1.45;;;;;;;;;;5039882;28;20225;-71
2023/02/26 10:39:16;;;;;;;4.57;1.50;;;;;;;;;;5043711;28;20194;-71
2023/02/26 10:41:45;;;;;;;1.80;1.20;;;;;;;;;;5049766;28;20191;-71
2023/02/26 10:44:16;;;;;;;1.30;1.10;;;;;;;;;;5046547;28;20195;-70
2023/02/26 10:46:47;;;;;;;1.98;1.40;;;;;;;;;;5046917;28;20218;-71
2023/02/26 10:49:37;;;;;;;1.30;1.00;;;;;;;;;;5047612;28;20222;-70
2023/02/26 10:52:12;;;;;;;1.35;1.08;;;;;;;;;;5046167;28;20227;-72
2023/02/26 10:54:41;;;;;;;4.32;1.42;;;;;;;;;;5052671;28;20659;-71
2023/02/26 10:57:15;;;;;;;2.17;1.17;;;;;;;;;;5048543;28;20214;-71
2023/02/26 10:59:42;;;;;;;1.98;1.50;;;;;;;;;;5044880;28;20206;-70
2023/02/26 11:02:30;;;;;;;4.30;1.75;;;;;;;;;;5048321;28;20205;-71
2023/02/26 11:04:57;;;;;;;1.60;1.35;;;;;;;;;;5049947;28;20187;-71
2023/02/26 11:07:25;;;;;;;1.88;1.20;;;;;;;;;;5042367;28;20229;-71
2023/02/26 11:09:53;;;;;;;3.00;1.10;;;;;;;;;;5049999;28;20226;-72
2023/02/26 11:12:22;;;;;;;1.40;1.00;;;;;;;;;;5042213;28;20190;-71
2023/02/26 11:14:50;;;;;;;3.13;1.50;;;;;;;;;;5043549;28;20237;-70
2023/02/26 11:17:19;;;;;;;2.03;1.20;;;;;;;;;;5046135;28;20229;-70
2023/02/26 11:19:49;;;;;;;1.30;1.10;;;;;;;;;;5050967;28;20202;-70
2023/02/26 11:22:17;;;;;;;1.60;1.33;;;;;;;;;;5045744;28;20203;-74
2023/02/26 11:24:45;;;;;;;2.50;1.40;;;;;;;;;;5052175;28;20201;-71
2023/02/26 11:27:14;;;;;;;3.70;1.83;;;;;;;;;;5036541;28;20587;-71
2023/02/26 11:29:43;;;;;;;1.60;1.20;;;;;;;;;;5048328;28;20206;-70
2023/02/26 11:32:17;;;;;;;2.55;1.52;;;;;;;;;;5053710;28;20194;-70
2023/02/26 11:34:46;;;;;;;4.40;1.85;;;;;;;;;;5044163;28;20195;-71
2023/02/26 11:37:14;;;;;;;2.10;1.10;;;;;;;;;;5047434;28;20241;-72
2023/02/26 11:39:41;;;;;;;5.47;1.95;;;;;;;;;;5051903;28;20281;-72
2023/02/26 11:42:08;;;;;;;1.55;1.40;;;;;;;;;;5045451;28;20199;-72
2023/02/26 11:44:37;;;;;;;3.45;1.80;;;;;;;;;;5046322;28;20206;-72
2023/02/26 11:47:07;;;;;;;2.75;1.40;;;;;;;;;;5048942;28;20221;-71
2023/02/26 11:49:35;;;;;;;1.65;1.30;;;;;;;;;;5046868;28;20234;-76
2023/02/26 11:52:07;;;;;;;1.60;1.50;;;;;;;;;;5047520;28;20205;-72
2023/02/26 11:54:35;;;;;;;6.25;1.50;;;;;;;;;;5049269;28;20199;-71
2023/02/26 11:57:04;;;;;;;1.30;1.13;;;;;;;;;;5052944;28;20215;-72
2023/02/26 11:59:32;;;;;;;2.58;1.15;;;;;;;;;;5048226;28;20187;-72
2023/02/26 12:02:03;;;;;;;3.60;1.63;;;;;;;;;;5051799;28;20252;-72
2023/02/26 12:04:32;;;;;;;1.95;1.23;;;;;;;;;;5050033;28;20202;-72
2023/02/26 12:06:59;;;;;;;1.88;1.30;;;;;;;;;;5066556;22;20246;-72
2023/02/26 12:09:27;;;;;;;3.63;1.67;;;;;;;;;;5048050;28;20591;-71
2023/02/26 12:12:02;;;;;;;1.85;1.30;;;;;;;;;;5047809;28;20655;-73
2023/02/26 12:14:50;;;;;;;1.92;1.40;;;;;;;;;;5050088;28;20195;-71
2023/02/26 12:17:22;;;;;;;2.25;1.17;;;;;;;;;;5036747;28;20219;-71
2023/02/26 12:19:53;;;;;;;2.70;1.35;;;;;;;;;;5033179;28;20199;-72
2023/02/26 12:22:27;;;;;;;2.45;1.00;;;;;;;;;;5033111;28;20199;-72
2023/02/26 12:25:06;;;;;;;1.40;1.10;;;;;;;;;;5028636;28;20668;-72
2023/02/26 12:27:40;;;;;;;1.92;1.13;;;;;;;;;;5043956;28;20215;-72
2023/02/26 12:30:14;;;;;;;2.50;1.50;;;;;;;;;;5027338;28;20219;-73
2023/02/26 12:32:47;;;;;;;1.50;1.10;;;;;;;;;;5046015;28;20209;-72
2023/02/26 12:35:41;;;;;;;1.73;1.20;;;;;;;;;;5035972;28;20195;-72
2023/02/26 12:38:15;;;;;;;1.75;1.25;;;;;;;;;;5021078;28;20203;-75
2023/02/26 12:40:57;;;;;;;1.45;1.35;;;;;;;;;;5030877;28;20218;-75
2023/02/26 12:43:29;;;;;;;5.20;1.45;;;;;;;;;;5012047;28;20199;-74
2023/02/26 12:46:03;;;;;;;2.00;1.15;;;;;;;;;;5032849;28;20591;-72
2023/02/26 12:48:40;;;;;;;1.60;1.00;;;;;;;;;;5052952;28;20203;-72
2023/02/26 12:51:13;;;;;;;2.65;1.50;;;;;;;;;;5052726;28;20218;-72
2023/02/26 12:53:54;;;;;;;1.20;1.00;;;;;;;;;;5042528;28;20199;-72
2023/02/26 12:56:32;;;;;;;1.50;1.20;;;;;;;;;;5028024;28;20211;-72
2023/02/26 12:59:04;;;;;;;2.08;1.25;;;;;;;;;;5027146;28;20207;-72
2023/02/26 13:01:41;;;;;;;1.10;1.00;;;;;;;;;;5036456;28;20559;-72
2023/02/26 13:04:29;;;;;;;3.00;1.23;;;;;;;;;;5032192;28;20207;-78
2023/02/26 13:07:01;;;;;;;3.47;1.58;;;;;;;;;;5032537;28;20230;-78
2023/02/26 13:09:38;;;;;;;3.50;1.33;;;;;;;;;;5017520;28;20200;-77
2023/02/26 13:12:13;;;;;;;2.30;1.50;;;;;;;;;;5035326;28;20198;-78
2023/02/26 13:14:46;;;;;;;1.48;1.08;;;;;;;;;;5031768;28;20534;-79
2023/02/26 13:17:17;;;;;;;2.60;1.02;;;;;;;;;;5039527;28;20227;-79
2023/02/26 13:19:47;;;;;;;4.53;1.75;;;;;;;;;;5051733;28;20199;-78
2023/02/26 13:22:16;;;;;;;3.17;1.20;;;;;;;;;;5038174;28;20276;-78
2023/02/26 13:24:47;;;;;;;4.32;1.30;;;;;;;;;;5032156;28;20198;-78
2023/02/26 13:27:16;;;;;;;2.25;1.50;;;;;;;;;;5040398;28;20215;-78
2023/02/26 13:29:46;;;;;;;1.35;1.15;;;;;;;;;;5011477;28;20207;-79
2023/02/26 13:32:17;;;;;;;2.92;1.35;;;;;;;;;;5011712;28;20206;-79
2023/02/26 13:34:45;;;;;;;1.95;1.30;;;;;;;;;;5022238;28;20274;-77
2023/02/26 13:37:20;;;;;;;1.40;1.13;;;;;;;;;;5038268;28;20227;-77
2023/02/26 13:39:50;;;;;;;2.85;1.20;;;;;;;;;;5025048;28;20196;-79
2023/02/26 13:42:27;;;;;;;1.70;1.20;;;;;;;;;;5013412;28;20208;-79
2023/02/26 13:44:58;;;;;;;2.05;1.27;;;;;;;;;;5035258;28;20266;-78
2023/02/26 13:47:34;;;;;;;2.08;1.20;;;;;;;;;;5041563;28;20219;-76
2023/02/26 13:50:06;;;;;;;1.17;1.08;;;;;;;;;;5032077;28;20210;-78
2023/02/26 13:52:35;;;;;;;2.08;1.10;;;;;;;;;;5028861;28;20222;-79
2023/02/26 13:55:04;;;;;;;2.88;1.83;;;;;;;;;;5041105;28;20203;-78
2023/02/26 13:57:36;;;;;;;1.48;1.38;;;;;;;;;;5051693;28;20257;-83
2023/02/26 14:00:12;;;;;;;1.30;1.20;;;;;;;;;;5051645;28;20680;-81
2023/02/26 14:02:50;;;;;;;1.35;1.25;;;;;;;;;;5018540;28;20252;-87
2023/02/26 14:05:47;;;;;;;1.33;1.23;;;;;;;;;;5040912;28;20550;-76
2023/02/26 14:08:22;;;;;;;2.90;1.60;;;;;;;;;;4980147;28;20611;-76
2023/02/26 14:10:56;;;;;;;1.42;0.95;;;;;;;;;;5021269;28;20209;-77
2023/02/26 14:13:25;;;;;;;2.22;1.17;;;;;;;;;;5027958;28;21543;-76
2023/02/26 14:16:00;;;;;;;3.45;1.25;;;;;;;;;;5043931;28;20258;-77
2023/02/26 14:18:32;;;;;;;2.60;1.33;;;;;;;;;;5030120;28;20255;-77
2023/02/26 14:21:17;;;;;;;1.40;1.30;;;;;;;;;;5029409;28;20229;-77
2023/02/26 14:23:48;;;;;;;4.85;3.60;;;;;;;;;;5040064;28;20207;-77
2023/02/26 14:26:18;;;;;;;1.90;1.33;;;;;;;;;;5047684;28;20217;-77
2023/02/26 14:29:00;;;;;;;1.45;1.35;;;;;;;;;;5050190;28;20203;-76
2023/02/26 14:31:27;;;;;;;2.40;1.60;;;;;;;;;;5031454;28;20195;-79
2023/02/26 14:34:15;;;;;;;3.38;2.17;;;;;;;;;;5031053;28;20203;-84
2023/02/26 14:36:45;;;;;;;1.65;1.20;;;;;;;;;;5029726;28;20593;-85
2023/02/26 14:39:17;;;;;;;2.25;1.10;;;;;;;;;;5021102;28;20196;-84
2023/02/26 14:41:45;;;;;;;1.77;1.30;;;;;;;;;;5030834;28;20696;-79
2023/02/26 14:44:15;;;;;;;1.52;1.42;;;;;;;;;;5034213;28;20198;-78
2023/02/26 14:46:43;;;;;;;1.98;1.58;;;;;;;;;;5033106;28;20219;-78
2023/02/26 14:49:16;;;;;;;2.47;1.50;;;;;;;;;;5030149;28;20210;-80
2023/02/26 14:51:48;;;;;;;3.47;1.38;;;;;;;;;;5022169;28;20212;-79
2023/02/26 14:54:33;;;;;;;1.80;1.13;;;;;;;;;;5028780;28;20200;-79
2023/02/26 14:57:11;;;;;;;2.13;1.20;;;;;;;;;;5020127;28;20219;-84
2023/02/26 14:59:45;;;;;;;2.90;1.50;;;;;;;;;;5041231;28;20210;-84